createdAt,value
2024-04-19T00:02:17.200Z,0.70
2024-04-19T00:04:43.836Z,0.60
2024-04-19T00:07:10.436Z,0.80
2024-04-19T00:09:46.426Z,0.70
2024-04-19T00:12:13.978Z,0.70
2024-04-19T00:14:40.848Z,0.90
2024-04-19T00:17:07.554Z,0.90
2024-04-19T00:19:34.153Z,0.90
2024-04-19T00:22:00.776Z,0.90
2024-04-19T00:24:27.391Z,0.90
2024-04-19T00:26:54.112Z,0.70
2024-04-19T00:29:40.653Z,0.60
2024-04-19T00:32:07.713Z,0.70
2024-04-19T00:34:34.562Z,0.70
2024-04-19T00:37:01.459Z,0.60
2024-04-19T00:39:28.200Z,0.70
2024-04-19T00:41:54.919Z,0.50
2024-04-19T00:44:21.671Z,0.50
2024-04-19T00:46:48.650Z,0.50
2024-04-19T00:49:32.340Z,0.50
2024-04-19T00:52:00.031Z,0.30
2024-04-19T00:54:26.757Z,0.40
2024-04-19T00:56:53.792Z,0.30
2024-04-19T00:59:20.837Z,0.40
2024-04-19T01:01:47.736Z,0.30
2024-04-19T01:04:15.140Z,0.20
2024-04-19T01:06:41.953Z,0.20
2024-04-19T01:09:08.836Z,0.20
2024-04-19T01:11:35.779Z,0.20
2024-04-19T01:14:02.491Z,0.10
2024-04-19T01:16:29.272Z,0.10
2024-04-19T01:18:56.049Z,0.20
2024-04-19T01:21:23.251Z,0.20
2024-04-19T01:23:54.724Z,0.10
2024-04-19T01:26:21.441Z,0.20
2024-04-19T01:28:48.162Z,0.10
2024-04-19T01:31:14.899Z,0.20
2024-04-19T01:33:41.672Z,0.20
2024-04-19T01:36:08.666Z,0.10
2024-04-19T01:38:47.639Z,0.20
2024-04-19T01:41:14.561Z,0.30
2024-04-19T01:43:43.546Z,0.30
2024-04-19T01:46:10.300Z,0.10
2024-04-19T01:48:37.079Z,0.10
2024-04-19T01:51:03.973Z,0.10
2024-04-19T01:53:33.102Z,0.20
2024-04-19T01:55:59.941Z,0.90
2024-04-19T01:58:41.818Z,0.10
2024-04-19T02:01:09.025Z,0.20
2024-04-19T02:03:35.967Z,0.20
2024-04-19T02:06:13.553Z,0.10
2024-04-19T02:08:40.610Z,0.20
2024-04-19T02:11:07.434Z,0.10
2024-04-19T02:13:34.492Z,0.20
2024-04-19T02:16:01.592Z,0.10
2024-04-19T02:18:28.574Z,0.20
2024-04-19T02:20:55.411Z,0.20
2024-04-19T02:23:41.982Z,0.20
2024-04-19T02:26:09.740Z,0.10
2024-04-19T02:28:57.884Z,0.20
2024-04-19T02:31:24.870Z,0.20
2024-04-19T02:33:51.682Z,0.20
2024-04-19T02:36:18.596Z,0.20
2024-04-19T02:38:45.389Z,0.10
2024-04-19T02:41:12.135Z,0.10
2024-04-19T02:43:38.873Z,0.20
2024-04-19T02:46:06.755Z,0.20
2024-04-19T02:48:34.186Z,0.10
2024-04-19T02:51:02.560Z,0.10
2024-04-19T02:53:29.281Z,0.20
2024-04-19T02:55:56.636Z,0.10
2024-04-19T02:58:23.398Z,0.10
2024-04-19T03:00:50.205Z,0.10
2024-04-19T03:03:17.195Z,0.20
2024-04-19T03:05:45.241Z,0.20
2024-04-19T03:08:11.974Z,0.10
2024-04-19T03:10:39.543Z,0.20
2024-04-19T03:13:09.480Z,0.20
2024-04-19T03:15:36.459Z,0.10
2024-04-19T03:18:05.941Z,0.20
2024-04-19T03:20:32.660Z,0.10
2024-04-19T03:22:59.372Z,0.20
2024-04-19T03:25:26.054Z,0.20
2024-04-19T03:27:53.191Z,0.30
2024-04-19T03:30:27.489Z,0.20
2024-04-19T03:32:54.535Z,0.10
2024-04-19T03:35:21.454Z,0.10
2024-04-19T03:37:48.158Z,0.10
2024-04-19T03:40:15.060Z,0.10
2024-04-19T03:42:47.144Z,0.20
2024-04-19T03:45:32.498Z,0.10
2024-04-19T03:47:59.402Z,0.20
2024-04-19T03:50:26.092Z,0.10
2024-04-19T03:52:57.959Z,0.10
2024-04-19T03:55:25.430Z,0.10
2024-04-19T03:57:52.383Z,0.20
2024-04-19T04:00:22.730Z,0.20
2024-04-19T04:02:53.821Z,0.10
2024-04-19T04:05:20.574Z,0.10
2024-04-19T04:07:47.194Z,0.10
2024-04-19T04:10:13.930Z,0.20
2024-04-19T04:12:40.802Z,0.20
2024-04-19T04:15:08.545Z,0.20
2024-04-19T04:17:35.842Z,0.10
2024-04-19T04:20:04.577Z,0.10
2024-04-19T04:22:31.187Z,0.10
2024-04-19T04:24:57.934Z,0.10
2024-04-19T04:27:24.920Z,0.00
2024-04-19T04:29:51.720Z,0.20
2024-04-19T04:32:18.477Z,0.30
2024-04-19T04:34:45.441Z,0.10
2024-04-19T04:37:12.142Z,0.00
2024-04-19T04:39:38.918Z,0.10
2024-04-19T04:42:06.443Z,0.10
2024-04-19T04:44:34.260Z,0.10
2024-04-19T04:47:01.327Z,0.10
2024-04-19T04:49:28.344Z,0.20
2024-04-19T04:51:55.175Z,0.20
2024-04-19T04:54:22.043Z,0.10
2024-04-19T04:56:48.955Z,0.30
2024-04-19T04:59:15.602Z,0.20
2024-04-19T05:01:42.307Z,0.10
2024-04-19T05:04:09.933Z,0.20
2024-04-19T05:06:37.170Z,0.10
2024-04-19T05:09:04.571Z,0.20
2024-04-19T05:11:31.409Z,0.30
2024-04-19T05:13:58.131Z,0.10
2024-04-19T05:16:24.899Z,0.20
2024-04-19T05:18:52.693Z,0.20
2024-04-19T05:21:19.562Z,0.10
2024-04-19T05:23:47.416Z,0.20
2024-04-19T05:26:14.215Z,0.20
2024-04-19T05:28:41.170Z,0.20
2024-04-19T05:31:07.858Z,0.20
2024-04-19T05:33:37.854Z,0.10
2024-04-19T05:36:05.477Z,0.20
2024-04-19T05:38:32.312Z,0.20
2024-04-19T05:40:59.056Z,0.30
2024-04-19T05:43:25.793Z,0.30
2024-04-19T05:45:53.341Z,0.30
2024-04-19T05:48:22.238Z,0.20
2024-04-19T05:50:49.415Z,0.30
2024-04-19T05:53:16.199Z,0.20
2024-04-19T05:55:45.144Z,0.20
2024-04-19T05:58:12.202Z,0.30
2024-04-19T06:00:39.442Z,0.20
2024-04-19T06:03:06.305Z,0.40
2024-04-19T06:05:33.203Z,0.40
2024-04-19T06:08:00.049Z,0.30
2024-04-19T06:10:26.884Z,0.40
2024-04-19T06:12:54.386Z,0.40
2024-04-19T06:15:21.332Z,0.20
2024-04-19T06:17:49.503Z,0.40
2024-04-19T06:20:16.405Z,0.40
2024-04-19T06:22:43.082Z,0.30
2024-04-19T06:25:10.094Z,0.40
2024-04-19T06:27:36.751Z,0.40
2024-04-19T06:30:03.989Z,0.40
2024-04-19T06:32:30.750Z,0.60
2024-04-19T06:34:57.664Z,0.50
2024-04-19T06:37:25.431Z,0.70
2024-04-19T06:39:59.460Z,0.50
2024-04-19T06:42:32.333Z,0.60
2024-04-19T06:44:58.990Z,0.30
2024-04-19T06:47:25.674Z,0.70
2024-04-19T06:49:52.343Z,0.50
2024-04-19T06:52:19.075Z,0.80
2024-04-19T06:54:45.868Z,0.70
2024-04-19T06:57:15.095Z,0.70
2024-04-19T06:59:43.329Z,0.50
2024-04-19T07:02:10.410Z,0.80
2024-04-19T07:04:37.276Z,0.80
2024-04-19T07:07:04.416Z,0.40
2024-04-19T07:09:31.527Z,0.40
2024-04-19T07:11:58.250Z,0.60
2024-04-19T07:14:25.273Z,0.60
2024-04-19T07:16:55.735Z,0.70
2024-04-19T07:19:22.876Z,0.90
2024-04-19T07:21:49.584Z,0.60
2024-04-19T07:24:16.455Z,0.70
2024-04-19T07:26:43.370Z,0.80
2024-04-19T07:29:10.327Z,0.80
2024-04-19T07:31:37.157Z,0.80
2024-04-19T07:34:03.810Z,0.90
2024-04-19T07:36:31.006Z,0.60
2024-04-19T07:38:57.811Z,1.10
2024-04-19T07:41:24.520Z,0.80
2024-04-19T07:43:55.834Z,0.80
2024-04-19T07:46:27.533Z,0.80
2024-04-19T07:48:54.228Z,1.20
2024-04-19T07:51:20.922Z,1.10
2024-04-19T07:53:47.644Z,1.10
2024-04-19T07:56:14.797Z,0.80
2024-04-19T07:58:41.529Z,0.90
2024-04-19T08:01:08.428Z,1.20
2024-04-19T08:03:36.725Z,0.80
2024-04-19T08:06:04.410Z,0.90
2024-04-19T08:08:31.177Z,1.00
2024-04-19T08:10:57.790Z,1.20
2024-04-19T08:13:25.592Z,1.00
2024-04-19T08:15:52.423Z,0.80
2024-04-19T08:18:19.353Z,0.90
2024-04-19T08:20:46.021Z,1.00
2024-04-19T08:23:14.032Z,0.90
2024-04-19T08:25:41.538Z,0.70
2024-04-19T08:28:08.247Z,1.10
2024-04-19T08:30:34.922Z,1.30
2024-04-19T08:33:01.756Z,0.90
2024-04-19T08:35:28.464Z,0.90
2024-04-19T08:37:55.038Z,0.90
2024-04-19T08:40:22.510Z,0.80
2024-04-19T08:42:49.323Z,0.70
2024-04-19T08:45:17.328Z,0.80
2024-04-19T08:47:47.568Z,0.80
2024-04-19T08:50:17.150Z,0.90
2024-04-19T08:53:08.996Z,1.00
2024-04-19T08:55:33.888Z,1.90
2024-04-19T08:58:00.926Z,1.10
2024-04-19T09:00:27.764Z,1.00
2024-04-19T09:02:54.725Z,0.90
2024-04-19T09:05:21.779Z,1.40
2024-04-19T09:07:48.751Z,1.30
2024-04-19T09:10:21.399Z,0.90
2024-04-19T09:12:48.226Z,1.10
2024-04-19T09:15:15.298Z,1.00
2024-04-19T09:17:42.273Z,1.10
2024-04-19T09:20:09.979Z,1.00
2024-04-19T09:22:36.870Z,1.00
2024-04-19T09:25:04.504Z,1.20
2024-04-19T09:27:32.459Z,1.00
2024-04-19T09:30:02.269Z,1.20
2024-04-19T09:32:30.007Z,1.00
2024-04-19T09:34:57.061Z,1.50
2024-04-19T09:37:24.280Z,1.60
2024-04-19T09:39:53.839Z,1.50
2024-04-19T09:42:20.852Z,1.40
2024-04-19T09:44:51.767Z,1.70
2024-04-19T09:47:19.415Z,1.50
2024-04-19T09:49:47.287Z,1.40
2024-04-19T09:52:22.118Z,1.70
2024-04-19T09:55:02.589Z,1.70
2024-04-19T09:57:31.098Z,1.60
2024-04-19T09:59:58.931Z,1.40
2024-04-19T10:02:31.605Z,1.20
2024-04-19T10:05:04.027Z,1.20
2024-04-19T10:07:31.777Z,1.40
2024-04-19T10:10:00.314Z,1.10
2024-04-19T10:12:28.029Z,0.90
2024-04-19T10:14:54.657Z,1.40
2024-04-19T10:17:21.505Z,1.60
2024-04-19T10:19:52.962Z,1.60
2024-04-19T10:22:23.287Z,1.70
2024-04-19T10:25:01.701Z,1.50
2024-04-19T10:27:33.718Z,1.70
2024-04-19T10:30:01.498Z,1.70
2024-04-19T10:32:29.650Z,1.70
2024-04-19T10:34:57.178Z,1.90
2024-04-19T10:37:23.891Z,1.70
2024-04-19T10:39:50.675Z,1.70
2024-04-19T10:42:22.198Z,1.70
2024-04-19T10:44:49.959Z,1.90
2024-04-19T10:47:18.034Z,1.50
2024-04-19T10:49:45.364Z,1.60
2024-04-19T10:52:12.374Z,1.30
2024-04-19T10:54:39.105Z,1.50
2024-04-19T10:57:05.952Z,1.60
2024-04-19T10:59:32.936Z,1.60
2024-04-19T11:02:02.937Z,1.40
2024-04-19T11:04:30.108Z,1.30
2024-04-19T11:06:57.048Z,1.00
2024-04-19T11:09:24.331Z,1.40
2024-04-19T11:11:51.187Z,1.10
2024-04-19T11:14:20.265Z,1.00
2024-04-19T11:16:47.395Z,0.90
2024-04-19T11:19:17.556Z,1.00
2024-04-19T11:21:45.634Z,1.10
2024-04-19T11:24:12.384Z,1.10
2024-04-19T11:26:39.123Z,1.10
2024-04-19T11:29:07.217Z,1.00
2024-04-19T11:31:35.570Z,1.50
2024-04-19T11:34:02.520Z,1.10
2024-04-19T11:36:29.610Z,1.40
2024-04-19T11:38:57.080Z,1.30
2024-04-19T11:41:23.891Z,0.90
2024-04-19T11:43:50.486Z,1.00
2024-04-19T11:46:25.952Z,1.00
2024-04-19T11:48:52.786Z,0.80
2024-04-19T11:51:20.486Z,0.40
2024-04-19T11:53:47.290Z,0.30
2024-04-19T11:56:14.297Z,0.40
2024-04-19T11:58:41.192Z,0.40
2024-04-19T12:01:08.125Z,0.40
2024-04-19T12:03:35.288Z,0.60
2024-04-19T12:06:03.447Z,0.80
2024-04-19T12:08:30.246Z,0.60
2024-04-19T12:10:57.384Z,0.90
2024-04-19T12:16:29.749Z,0.70
2024-04-19T12:18:40.964Z,1.00
2024-04-19T12:21:08.724Z,0.80
2024-04-19T12:23:35.930Z,0.80
2024-04-19T12:26:03.351Z,0.90
2024-04-19T12:28:30.508Z,1.00
2024-04-19T12:30:58.066Z,0.80
2024-04-19T12:33:24.846Z,1.00
2024-04-19T12:35:51.572Z,0.90
2024-04-19T12:38:18.418Z,1.00
2024-04-19T12:40:45.153Z,0.70
2024-04-19T12:43:12.191Z,0.80
2024-04-19T12:45:38.978Z,0.90
2024-04-19T12:48:08.048Z,0.90
2024-04-19T12:50:38.139Z,1.20
2024-04-19T12:53:05.684Z,0.80
2024-04-19T12:55:33.176Z,1.00
2024-04-19T12:58:00.844Z,1.00
2024-04-19T13:00:29.245Z,1.10
2024-04-19T13:02:57.305Z,1.00
2024-04-19T13:05:24.634Z,0.60
2024-04-19T13:07:51.390Z,1.50
2024-04-19T13:10:22.835Z,0.70
2024-04-19T13:12:49.772Z,0.80
2024-04-19T13:15:16.918Z,0.90
2024-04-19T13:17:44.397Z,1.00
2024-04-19T13:20:11.366Z,1.20
2024-04-19T13:22:38.091Z,1.20
2024-04-19T13:25:05.925Z,1.30
2024-04-19T13:27:32.761Z,1.10
2024-04-19T13:30:00.587Z,1.00
2024-04-19T13:32:27.483Z,0.90
2024-04-19T13:34:54.166Z,1.00
2024-04-19T13:37:24.346Z,0.90
2024-04-19T13:39:51.144Z,0.80
2024-04-19T13:42:18.155Z,0.80
2024-04-19T13:44:44.968Z,1.10
2024-04-19T13:47:13.406Z,0.90
2024-04-19T13:49:41.487Z,1.30
2024-04-19T13:52:08.974Z,1.40
2024-04-19T13:54:35.740Z,1.10
2024-04-19T13:57:02.883Z,1.00
2024-04-19T13:59:29.714Z,1.20
2024-04-19T14:01:56.940Z,0.90
2024-04-19T14:04:23.853Z,1.20
2024-04-19T14:06:50.806Z,1.20
2024-04-19T14:09:17.588Z,1.10
2024-04-19T14:11:45.804Z,1.20
2024-04-19T14:14:12.524Z,1.00
2024-04-19T14:16:39.474Z,1.20
2024-04-19T14:19:06.239Z,1.30
2024-04-19T14:21:33.145Z,1.30
2024-04-19T14:23:59.857Z,1.40
2024-04-19T14:26:26.532Z,1.50
2024-04-19T14:28:53.245Z,1.50
2024-04-19T14:31:20.011Z,1.40
2024-04-19T14:33:46.856Z,1.30
2024-04-19T14:36:13.665Z,1.50
2024-04-19T14:38:40.817Z,1.50
2024-04-19T14:41:08.490Z,1.30
2024-04-19T14:43:35.558Z,1.20
2024-04-19T14:46:02.492Z,1.40
2024-04-19T14:48:29.641Z,1.40
2024-04-19T14:50:56.562Z,1.40
2024-04-19T14:53:23.205Z,1.50
2024-04-19T14:55:49.932Z,1.10
2024-04-19T14:58:16.774Z,0.90
2024-04-19T15:00:43.706Z,1.10
2024-04-19T15:03:10.585Z,1.10
2024-04-19T15:05:37.296Z,1.10
2024-04-19T15:08:10.211Z,0.80
2024-04-19T15:10:37.334Z,0.80
2024-04-19T15:13:04.808Z,0.90
2024-04-19T15:15:31.795Z,0.80
2024-04-19T15:17:59.871Z,0.90
2024-04-19T15:20:26.647Z,0.80
2024-04-19T15:22:55.256Z,0.60
2024-04-19T15:25:21.997Z,0.70
2024-04-19T15:27:48.749Z,0.80
2024-04-19T15:30:15.756Z,0.90
2024-04-19T15:32:43.402Z,0.60
2024-04-19T15:35:11.906Z,0.90
2024-04-19T15:37:38.740Z,0.60
2024-04-19T15:40:06.841Z,0.50
2024-04-19T15:42:36.713Z,0.50
2024-04-19T15:45:04.413Z,0.70
2024-04-19T15:47:31.294Z,0.70
2024-04-19T15:49:58.086Z,1.10
2024-04-19T15:52:24.807Z,0.70
2024-04-19T15:54:53.486Z,0.90
2024-04-19T15:57:20.461Z,0.90
2024-04-19T15:59:47.192Z,1.00
2024-04-19T16:02:14.576Z,0.90
2024-04-19T16:04:41.392Z,0.80
2024-04-19T16:07:08.244Z,1.00
2024-04-19T16:09:35.229Z,1.10
2024-04-19T16:12:02.007Z,0.90
2024-04-19T16:14:28.800Z,0.80
2024-04-19T16:16:55.636Z,0.90
2024-04-19T16:19:24.308Z,0.90
2024-04-19T16:24:17.595Z,0.80
2024-04-19T16:26:44.304Z,0.90
2024-04-19T16:29:11.459Z,0.80
2024-04-19T16:31:38.543Z,0.90
2024-04-19T16:34:05.310Z,0.90
2024-04-19T16:36:32.202Z,1.00
2024-04-19T16:38:59.013Z,0.80
2024-04-19T16:41:25.753Z,0.90
2024-04-19T16:43:52.488Z,0.70
2024-04-19T16:46:19.235Z,1.00
2024-04-19T16:48:46.001Z,0.70
2024-04-19T16:51:16.179Z,0.70
2024-04-19T16:53:43.308Z,0.70
2024-04-19T16:56:10.079Z,0.90
2024-04-19T16:58:36.825Z,0.90
2024-04-19T17:01:03.664Z,1.00
2024-04-19T17:03:30.788Z,1.20
2024-04-19T17:05:57.657Z,1.00
2024-04-19T17:08:24.607Z,1.30
2024-04-19T17:10:51.447Z,1.20
2024-04-19T17:13:18.212Z,0.80
2024-04-19T17:15:45.104Z,1.10
2024-04-19T17:18:12.211Z,1.20
2024-04-19T17:20:41.356Z,1.00
2024-04-19T17:23:08.440Z,0.90
2024-04-19T17:25:35.166Z,1.00
2024-04-19T17:28:01.953Z,1.10
2024-04-19T17:30:28.972Z,1.20
2024-04-19T17:32:55.995Z,0.80
2024-04-19T17:35:22.955Z,1.20
2024-04-19T17:37:49.573Z,1.20
2024-04-19T17:40:16.434Z,1.10
2024-04-19T17:42:43.077Z,1.10
2024-04-19T17:45:09.801Z,1.30
2024-04-19T17:47:36.640Z,1.10
2024-04-19T17:50:04.957Z,1.30
2024-04-19T17:52:32.583Z,1.40
2024-04-19T17:54:59.374Z,1.20
2024-04-19T17:57:28.248Z,1.00
2024-04-19T17:59:55.046Z,1.20
2024-04-19T18:02:22.563Z,1.30
2024-04-19T18:04:49.399Z,1.40
2024-04-19T18:07:16.116Z,1.30
2024-04-19T18:09:42.866Z,1.20
2024-04-19T18:12:09.682Z,1.10
2024-04-19T18:14:36.413Z,1.60
2024-04-19T18:17:03.318Z,1.40
2024-04-19T18:19:30.227Z,1.40
2024-04-19T18:21:57.413Z,1.30
2024-04-19T18:24:28.110Z,1.30
2024-04-19T18:26:55.478Z,1.40
2024-04-19T18:29:25.557Z,1.30
2024-04-19T18:31:52.760Z,1.50
2024-04-19T18:34:21.307Z,1.50
2024-04-19T18:36:48.514Z,1.30
2024-04-19T18:39:16.300Z,1.50
2024-04-19T18:41:44.867Z,1.40
2024-04-19T18:44:12.031Z,1.10
2024-04-19T18:46:38.881Z,1.40
2024-04-19T18:49:09.475Z,1.20
2024-04-19T18:51:36.413Z,1.10
2024-04-19T18:54:03.408Z,1.00
2024-04-19T18:56:30.159Z,1.10
2024-04-19T18:58:56.810Z,1.20
2024-04-19T19:01:23.540Z,1.30
2024-04-19T19:03:50.542Z,1.20
2024-04-19T19:06:17.820Z,1.10
2024-04-19T19:08:44.544Z,1.70
2024-04-19T19:11:15.032Z,1.90
2024-04-19T19:13:44.571Z,1.80
2024-04-19T19:16:11.358Z,1.80
2024-04-19T19:18:38.305Z,1.80
2024-04-19T19:21:05.609Z,1.60
2024-04-19T19:23:32.338Z,1.60
2024-04-19T19:26:04.435Z,1.40
2024-04-19T19:28:31.480Z,1.20
2024-04-19T19:30:58.981Z,1.10
2024-04-19T19:33:26.268Z,1.20
2024-04-19T19:35:56.392Z,0.90
2024-04-19T19:38:23.884Z,1.10
2024-04-19T19:40:50.589Z,1.50
2024-04-19T19:43:19.674Z,1.20
2024-04-19T19:45:55.209Z,1.50
2024-04-19T19:48:22.004Z,1.30
2024-04-19T19:50:56.298Z,1.10
2024-04-19T19:53:22.948Z,1.20
2024-04-19T19:55:49.777Z,1.10
2024-04-19T19:58:16.510Z,1.40
2024-04-19T20:01:02.303Z,1.20
2024-04-19T20:03:47.849Z,1.50
2024-04-19T20:06:14.940Z,1.90
2024-04-19T20:08:41.757Z,1.80
2024-04-19T20:11:08.443Z,1.60
2024-04-19T20:13:35.243Z,1.80
2024-04-19T20:16:04.325Z,1.30
2024-04-19T20:18:31.410Z,1.30
2024-04-19T20:20:58.678Z,1.40
2024-04-19T20:23:25.588Z,1.20
2024-04-19T20:25:52.262Z,1.20
2024-04-19T20:28:19.084Z,1.40
2024-04-19T20:30:45.980Z,1.60
2024-04-19T20:33:12.794Z,1.50
2024-04-19T20:35:39.611Z,1.60
2024-04-19T20:38:06.474Z,1.50
2024-04-19T20:40:33.319Z,2.00
2024-04-19T20:43:14.606Z,1.70
2024-04-19T20:45:47.136Z,1.40
2024-04-19T20:48:15.923Z,1.20
2024-04-19T20:50:42.899Z,1.40
2024-04-19T20:53:09.525Z,1.50
2024-04-19T20:55:41.833Z,1.20
2024-04-19T20:58:08.504Z,1.50
2024-04-19T21:00:38.607Z,1.20
2024-04-19T21:03:05.697Z,1.60
2024-04-19T21:05:32.687Z,1.50
2024-04-19T21:07:59.353Z,1.70
2024-04-19T21:10:26.107Z,1.50
2024-04-19T21:12:53.667Z,1.40
2024-04-19T21:15:20.523Z,1.10
2024-04-19T21:17:47.173Z,1.50
2024-04-19T21:20:13.838Z,1.50
2024-04-19T21:22:40.471Z,1.60
2024-04-19T21:25:07.453Z,1.20
2024-04-19T21:27:34.977Z,1.30
2024-04-19T21:30:02.055Z,2.00
2024-04-19T21:32:31.865Z,1.30
2024-04-19T21:34:58.593Z,1.30
2024-04-19T21:37:25.371Z,1.30
2024-04-19T21:39:55.309Z,1.30
2024-04-19T21:42:23.184Z,1.30
2024-04-19T21:44:54.467Z,1.20
2024-04-19T21:47:21.395Z,1.30
2024-04-19T21:49:48.099Z,1.50
2024-04-19T21:52:17.945Z,1.10
2024-04-19T21:54:44.881Z,1.20
2024-04-19T21:57:11.571Z,1.20
2024-04-19T21:59:39.406Z,1.20
2024-04-19T22:02:06.151Z,1.80
2024-04-19T22:04:33.066Z,1.90
2024-04-19T22:07:00.106Z,1.40
2024-04-19T22:09:27.625Z,1.60
2024-04-19T22:11:54.484Z,1.30
2024-04-19T22:14:21.329Z,1.20
2024-04-19T22:16:48.213Z,1.40
2024-04-19T22:19:15.227Z,1.40
2024-04-19T22:21:42.184Z,1.00
2024-04-19T22:24:09.128Z,1.40
2024-04-19T22:26:36.144Z,1.50
2024-04-19T22:29:03.092Z,1.20
2024-04-19T22:31:29.933Z,1.10
2024-04-19T22:33:57.035Z,1.30
2024-04-19T22:36:24.770Z,1.50
2024-04-19T22:38:51.923Z,1.30
2024-04-19T22:41:19.034Z,1.40
2024-04-19T22:43:45.890Z,1.20
2024-04-19T22:46:12.929Z,1.30
2024-04-19T22:48:41.056Z,1.40
2024-04-19T22:51:08.323Z,1.50
2024-04-19T22:53:35.329Z,1.10
2024-04-19T22:56:02.471Z,1.20
2024-04-19T22:58:29.307Z,1.20
2024-04-19T23:01:07.687Z,1.20
2024-04-19T23:03:35.262Z,1.40
2024-04-19T23:06:09.665Z,1.20
2024-04-19T23:08:36.851Z,1.10
2024-04-19T23:11:04.832Z,1.00
2024-04-19T23:13:32.782Z,1.20
2024-04-19T23:15:59.657Z,1.20
2024-04-19T23:18:26.675Z,1.30
2024-04-19T23:21:01.218Z,1.10
2024-04-19T23:23:28.637Z,1.10
2024-04-19T23:26:06.536Z,1.30
2024-04-19T23:28:33.873Z,1.50
2024-04-19T23:31:01.409Z,1.00
2024-04-19T23:33:30.504Z,1.10
2024-04-19T23:36:01.314Z,1.20
2024-04-19T23:38:28.418Z,1.10
2024-04-19T23:40:55.622Z,1.10
2024-04-19T23:43:22.512Z,1.00
2024-04-19T23:45:49.620Z,1.10
2024-04-19T23:48:16.921Z,1.10
2024-04-19T23:50:43.877Z,1.00
2024-04-19T23:53:10.711Z,1.10
2024-04-19T23:55:37.749Z,1.30
2024-04-19T23:58:04.695Z,1.30
